createdAt,value
2023-02-24T00:00:33.366Z,6.70
2023-02-24T00:03:11.166Z,6.70
2023-02-24T00:05:44.504Z,6.70
2023-02-24T00:08:14.453Z,6.70
2023-02-24T00:10:44.446Z,6.70
2023-02-24T00:13:21.498Z,6.70
2023-02-24T00:16:03.771Z,6.60
2023-02-24T00:18:37.191Z,6.60
2023-02-24T00:21:11.069Z,6.60
2023-02-24T00:23:41.857Z,6.60
2023-02-24T00:26:13.694Z,6.60
2023-02-24T00:28:44.447Z,6.60
2023-02-24T00:31:16.947Z,6.60
2023-02-24T00:33:50.043Z,6.60
2023-02-24T00:36:24.026Z,6.60
2023-02-24T00:38:55.803Z,6.60
2023-02-24T00:41:29.391Z,6.60
2023-02-24T00:44:06.157Z,6.60
2023-02-24T00:46:39.338Z,6.60
2023-02-24T00:49:19.697Z,6.50
2023-02-24T00:51:55.714Z,6.60
2023-02-24T00:54:28.283Z,6.60
2023-02-24T00:56:59.085Z,6.60
2023-02-24T00:59:29.193Z,6.60
2023-02-24T01:01:59.109Z,6.60
2023-02-24T01:04:31.958Z,6.50
2023-02-24T01:07:02.696Z,6.50
2023-02-24T01:09:35.109Z,6.60
2023-02-24T01:12:17.514Z,6.50
2023-02-24T01:14:51.105Z,6.50
2023-02-24T01:17:22.908Z,6.50
2023-02-24T01:20:00.345Z,6.50
2023-02-24T01:22:30.416Z,6.40
2023-02-24T01:25:00.251Z,6.40
2023-02-24T01:27:31.554Z,6.40
2023-02-24T01:30:01.674Z,6.40
2023-02-24T01:32:32.397Z,6.40
2023-02-24T01:35:04.918Z,6.40
2023-02-24T01:37:34.782Z,6.30
2023-02-24T01:40:11.228Z,6.30
2023-02-24T01:42:47.639Z,6.20
2023-02-24T01:45:28.810Z,6.10
2023-02-24T01:48:05.381Z,6.20
2023-02-24T01:50:39.912Z,6.10
2023-02-24T01:53:11.116Z,6.10
2023-02-24T01:55:47.141Z,5.90
2023-02-24T01:58:25.590Z,5.70
2023-02-24T02:00:55.514Z,5.60
2023-02-24T02:03:32.789Z,5.50
2023-02-24T02:06:09.038Z,5.50
2023-02-24T02:08:42.827Z,5.40
2023-02-24T02:11:20.500Z,5.30
2023-02-24T02:13:53.284Z,5.30
2023-02-24T02:16:52.926Z,5.20
2023-02-24T02:20:16.025Z,5.10
2023-02-24T02:23:13.612Z,5.00
2023-02-24T02:26:06.217Z,4.80
2023-02-24T02:29:01.504Z,4.70
2023-02-24T02:32:08.507Z,4.60
2023-02-24T02:34:53.857Z,4.50
2023-02-24T02:37:31.280Z,4.50
2023-02-24T02:40:20.105Z,4.40
2023-02-24T02:42:58.413Z,4.40
2023-02-24T02:45:33.892Z,4.30
2023-02-24T02:48:09.541Z,4.20
2023-02-24T02:50:48.860Z,4.10
2023-02-24T02:53:27.637Z,4.10
2023-02-24T02:56:04.103Z,4.00
2023-02-24T02:58:39.738Z,4.00
2023-02-24T03:01:10.426Z,4.00
2023-02-24T03:03:45.335Z,4.00
2023-02-24T03:06:22.449Z,4.00
2023-02-24T03:08:58.729Z,3.90
2023-02-24T03:11:31.044Z,4.00
2023-02-24T03:14:02.819Z,3.90
2023-02-24T03:16:33.536Z,3.90
2023-02-24T03:19:07.579Z,3.80
2023-02-24T03:21:45.313Z,3.80
2023-02-24T03:24:16.069Z,3.80
2023-02-24T03:26:52.680Z,3.80
2023-02-24T03:29:27.521Z,3.80
2023-02-24T03:32:04.825Z,3.70
2023-02-24T03:34:46.609Z,3.70
2023-02-24T03:37:25.586Z,3.70
2023-02-24T03:39:57.297Z,3.60
2023-02-24T03:42:33.872Z,3.60
2023-02-24T03:45:06.467Z,3.60
2023-02-24T03:47:36.702Z,3.60
2023-02-24T03:50:14.378Z,3.70
2023-02-24T03:52:57.113Z,3.60
2023-02-24T03:55:44.147Z,3.60
2023-02-24T03:58:23.828Z,3.60
2023-02-24T04:01:05.848Z,3.60
2023-02-24T04:03:43.006Z,3.60
2023-02-24T04:06:18.842Z,3.60
2023-02-24T04:08:56.744Z,3.60
2023-02-24T04:11:31.818Z,3.50
2023-02-24T04:14:09.510Z,3.60
2023-02-24T04:16:45.570Z,3.60
2023-02-24T04:19:21.308Z,3.60
2023-02-24T04:21:52.689Z,3.60
2023-02-24T04:24:30.370Z,3.60
2023-02-24T04:27:02.002Z,3.60
2023-02-24T04:29:36.971Z,3.60
2023-02-24T04:32:11.158Z,3.60
2023-02-24T04:34:42.409Z,3.50
2023-02-24T04:37:13.747Z,3.50
2023-02-24T04:39:46.220Z,3.50
2023-02-24T04:42:16.070Z,3.50
2023-02-24T04:44:46.637Z,3.50
2023-02-24T04:47:16.688Z,3.50
2023-02-24T04:49:46.550Z,3.60
2023-02-24T04:52:16.822Z,3.50
2023-02-24T04:54:49.587Z,3.50
2023-02-24T04:57:19.472Z,3.50
2023-02-24T04:59:49.514Z,3.50
2023-02-24T05:02:20.642Z,3.50
2023-02-24T05:04:51.352Z,3.50
2023-02-24T05:07:22.569Z,3.50
2023-02-24T05:09:55.141Z,3.50
2023-02-24T05:12:25.047Z,3.50
2023-02-24T05:14:55.054Z,3.50
2023-02-24T05:17:24.882Z,3.50
2023-02-24T05:20:07.261Z,3.50
2023-02-24T05:22:37.131Z,3.40
2023-02-24T05:25:14.464Z,3.50
2023-02-24T05:27:44.313Z,3.50
2023-02-24T05:30:16.524Z,3.50
2023-02-24T05:32:47.818Z,3.50
2023-02-24T05:35:19.540Z,3.50
2023-02-24T05:37:49.403Z,3.50
2023-02-24T05:40:24.145Z,3.50
2023-02-24T05:42:54.621Z,3.50
2023-02-24T05:45:24.576Z,3.50
2023-02-24T05:47:55.149Z,3.50
2023-02-24T05:50:26.549Z,3.50
2023-02-24T05:52:56.442Z,3.50
2023-02-24T05:55:28.874Z,3.50
2023-02-24T05:57:59.385Z,3.40
2023-02-24T06:00:29.298Z,3.50
2023-02-24T06:03:08.413Z,3.50
2023-02-24T06:05:39.826Z,3.50
2023-02-24T06:08:11.831Z,3.50
2023-02-24T06:10:46.925Z,3.50
2023-02-24T06:13:16.803Z,3.50
2023-02-24T06:15:50.662Z,3.50
2023-02-24T06:18:21.588Z,3.50
2023-02-24T06:20:54.007Z,3.50
2023-02-24T06:23:26.787Z,3.50
2023-02-24T06:25:59.207Z,3.50
2023-02-24T06:28:29.062Z,3.50
2023-02-24T06:30:59.062Z,3.50
2023-02-24T06:33:28.928Z,3.50
2023-02-24T06:35:58.808Z,3.50
2023-02-24T06:38:28.971Z,3.50
2023-02-24T06:41:06.431Z,3.50
2023-02-24T06:43:37.077Z,3.50
2023-02-24T06:46:07.941Z,3.50
2023-02-24T06:48:38.133Z,3.50
2023-02-24T06:51:10.620Z,3.50
2023-02-24T06:53:43.367Z,3.50
2023-02-24T06:56:19.949Z,3.50
2023-02-24T06:58:52.227Z,3.50
2023-02-24T07:01:25.778Z,3.50
2023-02-24T07:04:17.877Z,3.50
2023-02-24T07:06:52.431Z,3.50
2023-02-24T07:09:26.750Z,3.50
2023-02-24T07:12:02.708Z,3.50
2023-02-24T07:14:33.279Z,3.60
2023-02-24T07:17:03.816Z,3.60
2023-02-24T07:19:34.962Z,3.60
2023-02-24T07:22:05.804Z,3.60
2023-02-24T07:24:40.674Z,3.60
2023-02-24T07:27:22.460Z,3.60
2023-02-24T07:29:54.418Z,3.60
2023-02-24T07:32:25.543Z,3.70
2023-02-24T07:34:55.751Z,3.70
2023-02-24T07:37:25.730Z,3.70
2023-02-24T07:39:55.679Z,3.60
2023-02-24T07:42:30.654Z,3.60
2023-02-24T07:45:00.568Z,3.60
2023-02-24T07:47:30.413Z,3.60
2023-02-24T07:50:00.458Z,3.60
2023-02-24T07:52:32.581Z,3.60
2023-02-24T07:55:02.453Z,3.60
2023-02-24T07:57:37.383Z,3.60
2023-02-24T08:00:19.051Z,3.60
2023-02-24T08:02:51.644Z,3.50
2023-02-24T08:05:22.355Z,3.60
2023-02-24T08:07:52.488Z,3.60
2023-02-24T08:10:35.443Z,3.60
2023-02-24T08:13:07.951Z,3.60
2023-02-24T08:15:37.844Z,3.60
2023-02-24T08:18:08.274Z,3.60
2023-02-24T08:20:52.367Z,3.60
2023-02-24T08:23:28.458Z,3.60
2023-02-24T08:25:58.785Z,3.60
2023-02-24T08:28:32.110Z,3.60
2023-02-24T08:31:04.551Z,3.60
2023-02-24T08:33:46.784Z,3.60
2023-02-24T08:36:21.492Z,3.70
2023-02-24T08:38:52.296Z,3.60
2023-02-24T08:41:44.140Z,3.70
2023-02-24T08:44:21.641Z,3.70
2023-02-24T08:46:55.564Z,3.70
2023-02-24T08:49:29.139Z,3.70
2023-02-24T08:52:02.401Z,3.70
2023-02-24T08:54:48.060Z,3.80
2023-02-24T08:57:18.316Z,3.80
2023-02-24T08:59:57.737Z,3.90
2023-02-24T09:02:29.925Z,4.00
2023-02-24T09:05:03.782Z,4.00
2023-02-24T09:07:38.615Z,4.00
2023-02-24T09:10:17.863Z,4.10
2023-02-24T09:12:49.353Z,4.10
2023-02-24T09:15:25.643Z,4.20
2023-02-24T09:18:07.270Z,4.30
2023-02-24T09:20:58.196Z,4.30
2023-02-24T09:23:46.038Z,4.20
2023-02-24T09:26:15.989Z,4.30
2023-02-24T09:28:55.000Z,4.30
2023-02-24T09:31:40.855Z,4.40
2023-02-24T09:34:18.684Z,4.40
2023-02-24T09:37:01.572Z,4.40
2023-02-24T09:39:52.819Z,4.50
2023-02-24T09:42:34.442Z,4.50
2023-02-24T09:45:11.712Z,4.40
2023-02-24T09:47:57.245Z,4.40
2023-02-24T09:51:03.280Z,4.50
2023-02-24T09:53:49.465Z,4.40
2023-02-24T09:56:24.537Z,4.40
2023-02-24T09:59:00.917Z,4.50
2023-02-24T10:01:45.944Z,4.50
2023-02-24T10:05:07.399Z,4.40
2023-02-24T10:07:41.526Z,4.40
2023-02-24T10:10:28.301Z,4.40
2023-02-24T10:13:13.238Z,4.50
2023-02-24T10:16:07.858Z,4.60
2023-02-24T10:18:58.143Z,4.60
2023-02-24T10:21:48.484Z,4.60
2023-02-24T10:24:34.712Z,4.60
2023-02-24T10:27:16.884Z,4.60
2023-02-24T10:30:05.909Z,4.60
2023-02-24T10:32:47.336Z,4.60
2023-02-24T10:35:19.313Z,4.70
2023-02-24T10:37:52.045Z,4.70
2023-02-24T10:40:44.878Z,4.60
2023-02-24T10:43:30.164Z,4.70
2023-02-24T10:46:17.549Z,4.80
2023-02-24T10:49:00.545Z,4.70
2023-02-24T10:51:37.274Z,4.70
2023-02-24T10:54:34.354Z,4.80
2023-02-24T10:57:15.901Z,4.80
2023-02-24T11:00:21.007Z,4.90
2023-02-24T11:03:08.306Z,4.90
2023-02-24T11:05:44.482Z,4.90
2023-02-24T11:08:44.234Z,4.90
2023-02-24T11:11:25.972Z,4.90
2023-02-24T11:14:11.003Z,4.90
2023-02-24T11:17:02.400Z,4.90
2023-02-24T11:19:34.089Z,4.90
2023-02-24T11:22:08.860Z,4.80
2023-02-24T11:24:39.684Z,4.50
2023-02-24T11:27:15.063Z,4.20
2023-02-24T11:30:15.112Z,4.00
2023-02-24T11:33:20.343Z,4.00
2023-02-24T11:36:02.621Z,4.00
2023-02-24T11:38:42.582Z,3.80
2023-02-24T11:41:22.899Z,3.70
2023-02-24T11:44:02.116Z,3.60
2023-02-24T11:46:42.140Z,3.60
2023-02-24T11:49:28.450Z,3.50
2023-02-24T11:52:00.189Z,3.40
2023-02-24T11:54:37.729Z,3.50
2023-02-24T11:57:15.472Z,3.40
2023-02-24T11:59:54.040Z,3.10
2023-02-24T12:02:38.658Z,3.10
2023-02-24T12:05:16.988Z,3.10
2023-02-24T12:07:52.826Z,3.30
2023-02-24T12:10:27.709Z,3.10
2023-02-24T12:13:08.596Z,3.20
2023-02-24T12:15:46.937Z,3.00
2023-02-24T12:18:23.343Z,2.90
2023-02-24T12:20:59.982Z,2.90
2023-02-24T12:23:35.893Z,2.80
2023-02-24T12:26:20.605Z,2.90
2023-02-24T12:29:23.995Z,2.90
2023-02-24T12:32:10.884Z,2.90
2023-02-24T12:34:52.579Z,2.80
2023-02-24T12:37:40.039Z,2.90
2023-02-24T12:40:28.642Z,2.80
2023-02-24T12:43:08.254Z,2.80
2023-02-24T12:45:51.124Z,2.80
2023-02-24T12:48:55.703Z,2.80
2023-02-24T12:51:37.058Z,2.80
2023-02-24T12:54:16.183Z,2.80
2023-02-24T12:56:55.741Z,2.90
2023-02-24T12:59:31.772Z,2.70
2023-02-24T13:02:07.881Z,2.80
2023-02-24T13:04:47.546Z,2.80
2023-02-24T13:07:48.207Z,2.80
2023-02-24T13:10:32.381Z,2.70
2023-02-24T13:13:13.929Z,2.70
2023-02-24T13:15:54.651Z,2.70
2023-02-24T13:18:30.228Z,2.60
2023-02-24T13:21:24.939Z,2.70
2023-02-24T13:24:01.256Z,2.70
2023-02-24T13:26:34.356Z,2.70
2023-02-24T13:29:07.137Z,2.70
2023-02-24T13:31:46.211Z,2.60
2023-02-24T13:34:30.322Z,2.60
2023-02-24T13:37:04.392Z,2.60
2023-02-24T13:39:38.046Z,2.50
2023-02-24T13:42:24.256Z,2.60
2023-02-24T13:44:57.152Z,2.60
2023-02-24T13:48:23.149Z,2.50
2023-02-24T13:51:13.039Z,2.60
2023-02-24T13:54:09.962Z,2.60
2023-02-24T13:56:48.574Z,2.50
2023-02-24T13:59:38.371Z,2.50
2023-02-24T14:02:18.467Z,2.40
2023-02-24T14:04:51.825Z,2.40
2023-02-24T14:07:25.874Z,2.40
2023-02-24T14:10:02.288Z,2.40
2023-02-24T14:12:35.317Z,2.40
2023-02-24T14:15:07.635Z,2.40
2023-02-24T14:17:39.606Z,2.40
2023-02-24T14:20:21.850Z,2.40
2023-02-24T14:22:54.875Z,2.40
2023-02-24T14:25:32.134Z,2.40
2023-02-24T14:28:02.253Z,2.40
2023-02-24T14:30:37.236Z,2.40
2023-02-24T14:33:09.584Z,2.40
2023-02-24T14:35:43.623Z,2.40
2023-02-24T14:38:33.768Z,2.40
2023-02-24T14:41:08.787Z,2.40
2023-02-24T14:43:44.601Z,2.50
2023-02-24T14:46:14.554Z,2.50
2023-02-24T14:48:46.506Z,2.50
2023-02-24T14:51:24.416Z,2.50
2023-02-24T14:53:59.409Z,2.50
2023-02-24T14:56:35.257Z,2.40
2023-02-24T14:59:11.103Z,2.50
2023-02-24T15:01:43.410Z,2.50
2023-02-24T15:04:18.563Z,2.50
2023-02-24T15:06:49.338Z,2.50
2023-02-24T15:09:23.759Z,2.60
2023-02-24T15:11:57.273Z,2.50
2023-02-24T15:14:30.908Z,2.50
2023-02-24T15:17:05.012Z,2.60
2023-02-24T15:19:37.971Z,2.50
2023-02-24T15:22:23.513Z,2.60
2023-02-24T15:24:55.865Z,2.60
2023-02-24T15:27:31.037Z,2.50
2023-02-24T15:30:06.362Z,2.50
2023-02-24T15:32:40.393Z,2.50
2023-02-24T15:35:24.897Z,2.40
2023-02-24T15:37:55.965Z,2.40
2023-02-24T15:40:28.820Z,2.40
2023-02-24T15:43:10.000Z,2.40
2023-02-24T15:45:42.039Z,2.40
2023-02-24T15:48:26.831Z,2.30
2023-02-24T15:50:57.888Z,2.30
2023-02-24T15:53:27.863Z,2.30
2023-02-24T15:55:57.891Z,2.30
2023-02-24T15:58:30.743Z,2.30
2023-02-24T16:01:00.809Z,2.30
2023-02-24T16:03:32.774Z,2.30
2023-02-24T16:06:03.414Z,2.30
2023-02-24T16:08:34.094Z,2.30
2023-02-24T16:11:04.179Z,2.30
2023-02-24T16:13:36.855Z,2.30
2023-02-24T16:16:08.596Z,2.30
2023-02-24T16:18:38.677Z,2.30
2023-02-24T16:21:09.011Z,2.30
2023-02-24T16:23:41.341Z,2.30
2023-02-24T16:26:18.307Z,2.40
2023-02-24T16:28:56.915Z,2.30
2023-02-24T16:31:29.572Z,2.40
2023-02-24T16:34:00.277Z,2.40
2023-02-24T16:36:30.450Z,2.40
2023-02-24T16:39:01.350Z,2.40
2023-02-24T16:41:31.421Z,2.40
2023-02-24T16:44:04.097Z,2.40
2023-02-24T16:46:41.304Z,2.40
2023-02-24T16:49:13.094Z,2.50
2023-02-24T16:51:43.083Z,2.50
2023-02-24T16:54:13.229Z,2.50
2023-02-24T16:56:43.160Z,2.50
2023-02-24T16:59:15.714Z,2.50
2023-02-24T17:01:45.848Z,2.50
2023-02-24T17:04:15.881Z,2.60
2023-02-24T17:06:45.832Z,2.60
2023-02-24T17:09:17.308Z,2.60
2023-02-24T17:11:47.782Z,2.60
2023-02-24T17:14:23.207Z,2.60
2023-02-24T17:16:53.181Z,2.60
2023-02-24T17:19:23.238Z,2.60
2023-02-24T17:22:19.091Z,2.60
2023-02-24T17:24:48.956Z,2.60
2023-02-24T17:27:18.825Z,2.70
2023-02-24T17:29:51.324Z,2.70
2023-02-24T17:32:21.380Z,2.70
2023-02-24T17:34:51.566Z,2.80
2023-02-24T17:37:21.529Z,2.70
2023-02-24T17:39:51.448Z,2.70
2023-02-24T17:42:21.298Z,2.80
2023-02-24T17:44:53.838Z,2.80
2023-02-24T17:47:23.798Z,2.80
2023-02-24T17:49:53.907Z,2.80
2023-02-24T17:52:23.989Z,2.80
2023-02-24T17:54:53.917Z,2.80
2023-02-24T17:57:23.930Z,2.80
2023-02-24T17:59:56.471Z,2.90
2023-02-24T18:02:26.968Z,2.90
2023-02-24T18:04:57.055Z,2.90
2023-02-24T18:07:27.877Z,2.90
2023-02-24T18:09:59.568Z,2.90
2023-02-24T18:12:30.003Z,3.00
2023-02-24T18:15:08.626Z,3.00
2023-02-24T18:17:40.277Z,3.00
2023-02-24T18:20:13.080Z,3.00
2023-02-24T18:22:43.218Z,3.00
2023-02-24T18:25:13.703Z,3.00
2023-02-24T18:27:43.566Z,3.00
2023-02-24T18:30:18.571Z,3.00
2023-02-24T18:32:51.601Z,3.00
2023-02-24T18:35:22.191Z,3.00
2023-02-24T18:37:56.596Z,3.00
2023-02-24T18:40:26.973Z,3.10
2023-02-24T18:42:57.234Z,3.00
2023-02-24T18:45:29.740Z,3.00
2023-02-24T18:48:01.863Z,3.10
2023-02-24T18:50:31.753Z,3.10
2023-02-24T18:53:01.610Z,3.10
2023-02-24T18:55:31.505Z,3.10
2023-02-24T18:58:01.397Z,3.10
2023-02-24T19:00:33.899Z,3.10
2023-02-24T19:03:03.820Z,3.10
2023-02-24T19:05:38.402Z,3.10
2023-02-24T19:08:08.972Z,3.10
2023-02-24T19:10:40.484Z,3.10
2023-02-24T19:13:10.762Z,3.20
2023-02-24T19:15:45.039Z,3.20
2023-02-24T19:18:17.012Z,3.20
2023-02-24T19:20:47.378Z,3.20
2023-02-24T19:23:17.230Z,3.20
2023-02-24T19:25:47.137Z,3.20
2023-02-24T19:28:19.927Z,3.20
2023-02-24T19:30:54.149Z,3.20
2023-02-24T19:33:24.178Z,3.20
2023-02-24T19:35:54.095Z,3.20
2023-02-24T19:38:23.937Z,3.20
2023-02-24T19:40:53.816Z,3.30
2023-02-24T19:43:23.679Z,3.30
2023-02-24T19:45:56.174Z,3.30
2023-02-24T19:48:26.089Z,3.30
2023-02-24T19:50:55.999Z,3.30
2023-02-24T19:53:25.897Z,3.30
2023-02-24T19:55:55.854Z,3.30
2023-02-24T19:58:26.410Z,3.30
2023-02-24T20:00:58.944Z,3.30
2023-02-24T20:03:28.989Z,3.30
2023-02-24T20:05:58.838Z,3.30
2023-02-24T20:08:28.779Z,3.30
2023-02-24T20:11:02.931Z,3.30
2023-02-24T20:13:33.285Z,3.30
2023-02-24T20:16:15.017Z,3.30
2023-02-24T20:18:46.155Z,3.30
2023-02-24T20:21:16.628Z,3.20
2023-02-24T20:23:47.180Z,3.30
2023-02-24T20:26:17.378Z,3.20
2023-02-24T20:28:49.126Z,3.20
2023-02-24T20:31:22.527Z,3.20
2023-02-24T20:33:53.846Z,3.20
2023-02-24T20:36:27.028Z,3.30
2023-02-24T20:38:57.850Z,3.30
2023-02-24T20:41:28.964Z,3.30
2023-02-24T20:43:59.066Z,3.30
2023-02-24T20:46:34.217Z,3.30
2023-02-24T20:49:07.060Z,3.40
2023-02-24T20:51:39.641Z,3.40
2023-02-24T20:54:11.473Z,3.40
2023-02-24T20:56:44.715Z,3.40
2023-02-24T20:59:16.983Z,3.50
2023-02-24T21:01:51.063Z,3.50
2023-02-24T21:04:23.930Z,3.50
2023-02-24T21:06:54.361Z,3.50
2023-02-24T21:09:24.238Z,3.40
2023-02-24T21:11:54.150Z,3.40
2023-02-24T21:14:24.750Z,3.50
2023-02-24T21:16:57.178Z,3.40
2023-02-24T21:19:27.145Z,3.40
2023-02-24T21:21:57.269Z,3.40
2023-02-24T21:24:27.225Z,3.40
2023-02-24T21:26:57.084Z,3.40
2023-02-24T21:29:26.967Z,3.40
2023-02-24T21:31:59.580Z,3.40
2023-02-24T21:34:30.613Z,3.40
2023-02-24T21:37:01.660Z,3.40
2023-02-24T21:39:31.814Z,3.50
2023-02-24T21:42:01.741Z,3.50
2023-02-24T21:44:31.637Z,3.50
2023-02-24T21:47:04.623Z,3.50
2023-02-24T21:49:34.483Z,3.50
2023-02-24T21:52:05.505Z,3.50
2023-02-24T21:54:36.100Z,3.50
2023-02-24T21:57:06.819Z,3.50
2023-02-24T21:59:36.747Z,3.50
2023-02-24T22:02:09.539Z,3.50
2023-02-24T22:04:39.353Z,3.50
2023-02-24T22:07:09.221Z,3.50
2023-02-24T22:09:39.243Z,3.60
2023-02-24T22:12:10.212Z,3.60
2023-02-24T22:14:40.145Z,3.60
2023-02-24T22:17:12.590Z,3.60
2023-02-24T22:19:43.355Z,3.60
2023-02-24T22:22:13.203Z,3.60
2023-02-24T22:24:43.893Z,3.60
2023-02-24T22:27:13.758Z,3.50
2023-02-24T22:29:43.894Z,3.60
2023-02-24T22:32:16.734Z,3.60
2023-02-24T22:34:46.942Z,3.60
2023-02-24T22:37:17.445Z,3.60
2023-02-24T22:39:47.343Z,3.60
2023-02-24T22:42:17.221Z,3.60
2023-02-24T22:44:47.395Z,3.60
2023-02-24T22:47:19.872Z,3.60
2023-02-24T22:49:49.759Z,3.60
2023-02-24T22:52:20.429Z,3.60
2023-02-24T22:54:50.264Z,3.60
2023-02-24T22:57:20.128Z,3.60
2023-02-24T22:59:50.042Z,3.70
2023-02-24T23:02:22.461Z,3.70
2023-02-24T23:04:52.553Z,3.70
2023-02-24T23:07:22.421Z,3.70
2023-02-24T23:09:52.834Z,3.70
2023-02-24T23:12:23.122Z,3.70
2023-02-24T23:14:53.111Z,3.70
2023-02-24T23:17:25.546Z,3.70
2023-02-24T23:19:55.643Z,3.80
2023-02-24T23:22:25.519Z,3.80
2023-02-24T23:24:55.578Z,3.70
2023-02-24T23:27:25.413Z,3.80
2023-02-24T23:29:55.259Z,3.80
2023-02-24T23:32:28.128Z,3.80
2023-02-24T23:34:58.319Z,3.80
2023-02-24T23:37:28.254Z,3.80
2023-02-24T23:39:58.117Z,3.80
2023-02-24T23:42:28.631Z,3.90
2023-02-24T23:44:58.463Z,3.90
2023-02-24T23:47:30.976Z,3.90
2023-02-24T23:50:00.891Z,3.90
2023-02-24T23:52:32.078Z,3.90
2023-02-24T23:55:01.925Z,3.90
2023-02-24T23:57:32.069Z,3.80
